Home   Weather   Bosnia-Herzegovina   Prijedor   Past weeks
Flag for Bosnia-Herzegovina

Past Weather in Prijedor, Bosnia-Herzegovina — Yesterday and Last 2 Weeks

Currently: 61 °F. Passing clouds. (Weather station: Banja Luka, Bosnia-Herzegovina). See more current weather

Past Weather in Prijedor — Graph

°F

Prijedor Temperature Yesterday

Maximum temperature yesterday: 61 °F (at 8:30 pm)
Minimum temperature yesterday: 54 °F (at 6:30 am)
Average temperature yesterday: 57 °F

High & Low Weather Summary for the Past Weeks

 TemperatureHumidityPressure
High66 °F (Feb 10, 10:30 am)100% (Feb 9, 4:30 am)30.69 "Hg (Feb 9, 4:30 am)
Low30 °F (Feb 14, 3:30 am)27% (Feb 22, 12:30 pm)29.27 "Hg (Feb 11, 5:30 am)
Average49 °F74%30.00 "Hg
* Reported Feb 9 12:00 am — Feb 24 12:30 am, Prijedor. Weather by CustomWeather, © 2024

Note: Actual official high and low records may vary slightly from our data, if they occured in-between our weather recording intervals... More about our weather records

Prijedor Weather History for the Previous 24 Hours

Scroll right to see more
 ConditionsComfort  
Time TempWeatherWind HumidityBarometerVisibility
12:30 am
Sat, Feb 24
61 °FPassing clouds.14 mph42%29.56 "HgN/A
12:00 am63 °FClear.30 mph39%29.56 "Hg10 mi
11:30 pm
Fri, Feb 23
61 °FClear.23 mph42%29.53 "Hg10 mi
11:00 pm61 °FClear.23 mph42%29.53 "Hg10 mi
10:00 pm61 °FPassing clouds.12 mph42%29.56 "HgN/A
9:30 pm59 °FPassing clouds.9 mph45%29.56 "HgN/A
9:00 pm59 °FPassing clouds.13 mph45%29.56 "HgN/A
8:30 pm61 °FPassing clouds.18 mph42%29.56 "HgN/A
8:00 pm59 °FPassing clouds.14 mph45%29.56 "HgN/A
7:30 pm59 °FPassing clouds.17 mph45%29.59 "HgN/A
7:00 pm59 °FPassing clouds.7 mph45%29.59 "HgN/A
6:30 pm57 °FClear.14 mph48%29.59 "Hg10 mi
6:00 pm59 °FClear.17 mph45%29.59 "Hg10 mi
5:30 pm57 °FPassing clouds.8 mph48%29.59 "HgN/A
5:00 pm57 °FSunny.13 mph48%29.59 "Hg10 mi
4:30 pm59 °FSunny.17 mph45%29.62 "Hg10 mi
4:00 pm59 °FSunny.22 mph45%29.62 "Hg10 mi
3:30 pm59 °FSunny.28 mph45%29.62 "Hg10 mi
3:00 pm59 °FSunny.15 mph45%29.62 "Hg10 mi
2:30 pm59 °FSunny.16 mph48%29.62 "Hg10 mi
2:00 pm59 °FLight rain. Scattered clouds.12 mph48%29.65 "HgN/A
1:30 pm59 °FSunny.9 mph48%29.65 "Hg10 mi
1:00 pm59 °FSunny.9 mph48%29.65 "Hg10 mi
12:30 pm59 °FPassing clouds.17 mph48%29.65 "HgN/A
12:00 pm57 °FPassing clouds.14 mph51%29.68 "HgN/A
11:30 am55 °FPassing clouds.5 mph59%29.68 "HgN/A
11:00 am57 °FScattered clouds.17 mph51%29.68 "HgN/A
10:30 am55 °FSunny.10 mph55%29.68 "Hg10 mi
10:00 am55 °FPassing clouds.5 mph63%29.68 "HgN/A
9:30 am54 °FPassing clouds.8 mph67%29.68 "HgN/A
9:00 am54 °FPassing clouds.12 mph63%29.68 "HgN/A
8:30 am54 °FSunny.7 mph63%29.68 "Hg10 mi
8:00 am54 °FSunny.9 mph63%29.68 "Hg10 mi
7:30 am54 °FLight rain. Scattered clouds.15 mph63%29.68 "HgN/A
7:00 am54 °FLight rain. Scattered clouds.10 mph63%29.68 "HgN/A
6:30 am54 °FClear.14 mph58%29.68 "Hg10 mi
6:00 am57 °FClear.12 mph44%29.68 "Hg10 mi
5:30 am57 °FClear.12 mph44%29.68 "Hg10 mi
5:00 am57 °FClear.12 mph44%29.68 "Hg10 mi
4:30 am57 °FPassing clouds.10 mph44%29.68 "HgN/A
4:00 am57 °FClear.9 mph44%29.68 "Hg10 mi
3:30 am57 °FPassing clouds.9 mph44%29.68 "HgN/A
3:00 am57 °FClear.8 mph44%29.71 "Hg10 mi
2:30 am59 °FClear.12 mph42%29.71 "Hg10 mi
2:00 am59 °FPassing clouds.12 mph42%29.71 "HgN/A
Weather by CustomWeather, © 2024

See weather overview